createdAt,value
2018-06-17T13:44:15.068Z,5.90
2018-06-17T13:46:45.980Z,6.73
2018-06-17T13:49:15.220Z,5.42
2018-06-17T13:51:44.507Z,6.17
2018-06-17T13:54:13.761Z,5.50
2018-06-17T13:56:42.938Z,5.50
2018-06-17T13:59:12.123Z,5.95
2018-06-17T14:01:41.428Z,5.80
2018-06-17T14:04:10.589Z,6.13
2018-06-17T14:06:39.785Z,6.30
2018-06-17T14:09:10.095Z,5.60
2018-06-17T14:11:39.242Z,6.07
2018-06-17T14:14:08.485Z,6.60
2018-06-17T14:16:37.645Z,6.87
2018-06-17T14:19:07.542Z,6.70
2018-06-17T14:21:36.771Z,6.47
2018-06-17T14:24:06.034Z,5.77
2018-06-17T14:26:35.219Z,6.33
2018-06-17T14:29:04.433Z,5.90
2018-06-17T14:31:33.700Z,5.83
2018-06-17T14:34:02.830Z,5.90
2018-06-17T14:36:32.062Z,6.10
2018-06-17T14:39:01.264Z,6.00
2018-06-17T14:41:30.428Z,6.40
2018-06-17T14:44:04.824Z,5.30
2018-06-17T14:47:37.719Z,5.73
2018-06-17T14:50:12.078Z,5.27
2018-06-17T14:52:46.897Z,5.47
2018-06-17T14:55:16.167Z,5.78
2018-06-17T14:57:45.464Z,5.40
2018-06-17T15:00:14.726Z,5.27
2018-06-17T15:02:44.292Z,5.17
2018-06-17T15:05:13.503Z,5.35
2018-06-17T15:07:42.610Z,5.43
2018-06-17T15:10:11.781Z,5.60
2018-06-17T15:12:41.033Z,4.87
2018-06-17T15:15:10.183Z,5.07
2018-06-17T15:17:39.433Z,5.70
2018-06-17T15:20:08.718Z,5.83
2018-06-17T15:22:37.829Z,5.27
2018-06-17T15:25:07.125Z,5.60
2018-06-17T15:27:36.356Z,4.80
2018-06-17T15:30:05.878Z,5.83
2018-06-17T15:32:40.192Z,5.13
2018-06-17T15:35:14.852Z,4.97
2018-06-17T15:37:49.076Z,5.00
2018-06-17T15:40:18.306Z,4.90
2018-06-17T15:42:47.462Z,5.00
2018-06-17T15:45:16.792Z,5.57
2018-06-17T15:47:45.967Z,5.57
2018-06-17T15:50:15.209Z,4.40
2018-06-17T15:52:44.416Z,4.70
2018-06-17T15:55:13.672Z,5.00
2018-06-17T15:57:42.730Z,5.00
2018-06-17T16:00:11.965Z,4.90
2018-06-17T16:02:53.025Z,5.00
2018-06-17T16:05:22.208Z,4.95
2018-06-17T16:07:51.659Z,4.87
2018-06-17T16:10:20.871Z,4.90
2018-06-17T16:12:55.395Z,5.05
2018-06-17T16:15:30.021Z,5.00
2018-06-17T16:18:04.354Z,4.77
2018-06-17T16:20:38.708Z,6.10
2018-06-17T16:23:08.113Z,5.27
2018-06-17T16:25:37.269Z,4.95
2018-06-17T16:28:06.458Z,5.43
2018-06-17T16:30:35.643Z,5.37
2018-06-17T16:33:04.885Z,5.00
2018-06-17T16:35:34.190Z,5.10
2018-06-17T16:38:03.405Z,5.70
2018-06-17T16:40:32.641Z,5.13
2018-06-17T16:43:01.815Z,5.17
2018-06-17T16:45:31.005Z,4.97
2018-06-17T16:48:00.266Z,5.70
2018-06-17T16:50:29.434Z,5.53
2018-06-17T16:54:07.480Z,5.67
2018-06-17T16:56:41.716Z,5.23
2018-06-17T16:59:16.046Z,5.92
2018-06-17T17:01:45.199Z,5.93
2018-06-17T17:04:14.458Z,6.23
2018-06-17T17:06:43.628Z,6.00
2018-06-17T17:09:12.785Z,6.00
2018-06-17T17:11:42.209Z,5.57
2018-06-17T17:14:12.578Z,5.90
2018-06-17T17:16:42.453Z,5.90
2018-06-17T17:19:11.630Z,5.97
2018-06-17T17:21:40.859Z,5.73
2018-06-17T17:24:10.053Z,6.30
2018-06-17T17:26:39.249Z,5.90
2018-06-17T17:29:08.598Z,5.50
2018-06-17T17:31:42.961Z,6.58
2018-06-17T17:34:17.338Z,6.20
2018-06-17T17:36:51.853Z,6.63
2018-06-17T17:39:26.198Z,6.42
2018-06-17T17:41:55.396Z,6.37
2018-06-17T17:44:24.591Z,6.57
2018-06-17T17:46:58.973Z,6.10
2018-06-17T17:49:28.237Z,6.03
2018-06-17T17:51:57.403Z,6.65
2018-06-17T17:54:26.611Z,6.33
2018-06-17T17:56:55.835Z,7.10
2018-06-17T17:59:25.007Z,6.63
2018-06-17T18:01:54.154Z,6.87
2018-06-17T18:04:23.338Z,6.77
2018-06-17T18:06:52.529Z,6.77
2018-06-17T18:09:21.705Z,7.07
2018-06-17T18:11:50.950Z,6.27
2018-06-17T18:14:20.139Z,6.90
2018-06-17T18:16:49.311Z,6.80
2018-06-17T18:19:18.496Z,6.67
2018-06-17T18:21:47.706Z,6.67
2018-06-17T18:24:16.986Z,6.50
2018-06-17T18:27:52.840Z,7.03
2018-06-17T18:31:34.008Z,6.30
2018-06-17T18:34:08.360Z,7.07
2018-06-17T18:36:37.620Z,8.00
2018-06-17T18:39:08.409Z,7.73
2018-06-17T18:41:37.629Z,8.60
2018-06-17T18:44:06.878Z,8.00
2018-06-17T18:46:36.121Z,8.20
2018-06-17T18:49:05.403Z,7.50
2018-06-17T18:51:34.658Z,8.08
2018-06-17T18:54:03.936Z,8.00
2018-06-17T18:56:33.142Z,7.33
2018-06-17T18:59:02.410Z,8.00
2018-06-17T19:01:31.690Z,9.20
2018-06-17T19:04:00.893Z,8.63
2018-06-17T19:06:30.090Z,8.40
2018-06-17T19:09:04.664Z,8.33
2018-06-17T19:11:39.195Z,8.63
2018-06-17T19:14:13.503Z,9.87
2018-06-17T19:16:48.765Z,9.50
2018-06-17T19:19:18.047Z,9.88
2018-06-17T19:21:47.369Z,9.03
2018-06-17T19:24:16.868Z,10.20
2018-06-17T19:26:46.163Z,9.50
2018-06-17T19:29:15.349Z,10.67
2018-06-17T19:31:44.704Z,10.23
2018-06-17T19:34:14.030Z,9.17
2018-06-17T19:36:43.302Z,9.00
2018-06-17T19:39:12.918Z,7.33
2018-06-17T19:41:42.122Z,7.70
2018-06-17T19:44:11.278Z,7.60
2018-06-17T19:46:40.511Z,6.43
2018-06-17T19:49:09.786Z,7.20
2018-06-17T19:51:44.247Z,6.20
2018-06-17T19:54:18.787Z,5.30
2018-06-17T19:56:53.173Z,5.27
2018-06-17T19:59:27.550Z,5.60
2018-06-17T20:01:56.729Z,6.10
2018-06-17T20:04:31.600Z,5.80
2018-06-17T20:07:03.275Z,7.43
2018-06-17T20:09:36.253Z,8.20
2018-06-17T20:12:06.936Z,9.27
2018-06-17T20:14:36.063Z,9.70
2018-06-17T20:17:05.257Z,9.80
2018-06-17T20:19:34.581Z,10.70
2018-06-17T20:22:03.740Z,9.53
2018-06-17T20:24:32.990Z,9.13
2018-06-17T20:27:02.204Z,11.40
2018-06-17T20:29:31.612Z,11.20
2018-06-17T20:32:05.978Z,12.00
2018-06-17T20:34:40.225Z,10.98
2018-06-17T20:37:14.645Z,10.47
2018-06-17T20:39:49.007Z,10.20
2018-06-17T20:42:23.743Z,11.70
2018-06-17T20:44:52.969Z,13.40
2018-06-17T20:47:22.137Z,13.63
2018-06-17T20:49:51.366Z,12.30
2018-06-17T20:52:20.588Z,14.47
2018-06-17T20:54:50.250Z,12.07
2018-06-17T20:57:19.447Z,13.18
2018-06-17T20:59:48.636Z,13.00
2018-06-17T21:02:17.863Z,14.80
2018-06-17T21:04:47.142Z,14.63
2018-06-17T21:07:16.263Z,13.83
2018-06-17T21:09:45.444Z,14.03
2018-06-17T21:12:14.630Z,14.40
2018-06-17T21:14:43.790Z,13.83
2018-06-17T21:17:13.057Z,15.10
2018-06-17T21:19:47.437Z,14.73
2018-06-17T21:22:21.841Z,13.20
2018-06-17T21:24:56.291Z,14.20
2018-06-17T21:27:30.793Z,11.60
2018-06-17T21:30:00.083Z,11.43
2018-06-17T21:32:29.238Z,11.40
2018-06-17T21:34:58.402Z,10.50
2018-06-17T21:37:27.570Z,11.57
2018-06-17T21:39:56.707Z,11.70
2018-06-17T21:42:25.969Z,11.77
2018-06-17T21:44:55.122Z,11.10
2018-06-17T21:47:24.266Z,10.72
2018-06-17T21:49:53.878Z,10.90
2018-06-17T21:52:23.029Z,10.30
2018-06-17T21:54:52.165Z,11.43
2018-06-17T21:57:21.310Z,11.55
2018-06-17T21:59:50.498Z,12.10
2018-06-17T22:02:19.719Z,13.17
2018-06-17T22:04:48.958Z,12.77
2018-06-17T22:07:18.108Z,13.80
2018-06-17T22:09:52.373Z,14.63
2018-06-17T22:12:26.788Z,13.93
2018-06-17T22:15:01.133Z,15.50
2018-06-17T22:17:35.421Z,13.63
2018-06-17T22:20:05.036Z,15.73
2018-06-17T22:22:34.137Z,14.00
2018-06-17T22:25:03.266Z,14.10
2018-06-17T22:27:32.426Z,13.73
2018-06-17T22:30:01.507Z,12.37
2018-06-17T22:32:30.737Z,13.77
2018-06-17T22:35:00.594Z,13.30
2018-06-17T22:37:29.710Z,14.33
2018-06-17T22:39:58.866Z,14.23
2018-06-17T22:42:27.965Z,14.67
2018-06-17T22:44:57.091Z,15.10
2018-06-17T22:47:31.414Z,15.45
2018-06-17T22:50:00.549Z,15.13
2018-06-17T22:52:29.825Z,15.50
2018-06-17T22:54:59.009Z,14.23
2018-06-17T22:57:33.471Z,12.82
2018-06-17T23:00:07.784Z,14.33
2018-06-17T23:02:42.154Z,12.43
2018-06-17T23:05:16.638Z,12.30
2018-06-17T23:08:53.539Z,12.47
2018-06-17T23:11:22.871Z,15.90
2018-06-17T23:13:52.058Z,16.70
2018-06-17T23:16:21.194Z,16.97
2018-06-17T23:18:50.500Z,17.13
2018-06-17T23:21:20.013Z,17.70
2018-06-17T23:23:49.169Z,16.70
2018-06-17T23:26:18.367Z,17.70
2018-06-17T23:28:47.567Z,19.47
2018-06-17T23:31:16.798Z,21.40
2018-06-17T23:33:45.949Z,19.10
2018-06-17T23:36:15.108Z,20.57
2018-06-17T23:38:44.249Z,18.77
2018-06-17T23:41:15.846Z,18.70
2018-06-17T23:43:46.772Z,17.03
2018-06-17T23:46:21.254Z,18.93
2018-06-17T23:48:55.673Z,20.10
2018-06-17T23:51:30.148Z,18.70
2018-06-17T23:54:04.512Z,19.67
2018-06-17T23:56:35.386Z,19.30
2018-06-17T23:59:04.576Z,20.63
